sensor_id;sensor_type;location;lat;lon;timestamp;pressure;altitude;pressure_sealevel;temperature;humidity
66627;BME280;53498;50.422;14.912;2022-08-04T00:00:33;99078.56;;;21.07;69.92
66627;BME280;53498;50.422;14.912;2022-08-04T00:03:23;99087.53;;;21.02;69.79
66627;BME280;53498;50.422;14.912;2022-08-04T00:06:10;99085.09;;;20.98;69.22
66627;BME280;53498;50.422;14.912;2022-08-04T00:08:47;99079.00;;;20.96;69.31
66627;BME280;53498;50.422;14.912;2022-08-04T00:11:15;99092.28;;;20.94;69.70
66627;BME280;53498;50.422;14.912;2022-08-04T00:14:05;99087.38;;;20.85;68.91
66627;BME280;53498;50.422;14.912;2022-08-04T00:16:35;99087.69;;;20.77;66.77
66627;BME280;53498;50.422;14.912;2022-08-04T00:19:29;99083.88;;;20.85;66.57
66627;BME280;53498;50.422;14.912;2022-08-04T00:21:59;99084.41;;;20.93;66.83
66627;BME280;53498;50.422;14.912;2022-08-04T00:24:29;99091.34;;;20.95;65.76
66627;BME280;53498;50.422;14.912;2022-08-04T00:26:55;99091.31;;;20.97;64.19
66627;BME280;53498;50.422;14.912;2022-08-04T00:29:21;99095.78;;;20.95;65.06
66627;BME280;53498;50.422;14.912;2022-08-04T00:31:47;99098.84;;;21.06;65.31
66627;BME280;53498;50.422;14.912;2022-08-04T00:34:13;99099.72;;;21.07;64.01
66627;BME280;53498;50.422;14.912;2022-08-04T00:36:42;99102.16;;;21.11;66.09
66627;BME280;53498;50.422;14.912;2022-08-04T00:39:11;99101.81;;;20.98;65.19
66627;BME280;53498;50.422;14.912;2022-08-04T00:48:03;99104.06;;;20.87;67.73
66627;BME280;53498;50.422;14.912;2022-08-04T00:50:44;99100.03;;;20.77;68.27
66627;BME280;53498;50.422;14.912;2022-08-04T00:53:23;99106.50;;;20.70;69.30
66627;BME280;53498;50.422;14.912;2022-08-04T00:58:46;99104.84;;;20.67;68.71
66627;BME280;53498;50.422;14.912;2022-08-04T01:01:28;99108.34;;;20.68;68.89
66627;BME280;53498;50.422;14.912;2022-08-04T01:15:14;99107.81;;;20.60;69.40
66627;BME280;53498;50.422;14.912;2022-08-04T01:20:20;99108.19;;;20.27;69.84
66627;BME280;53498;50.422;14.912;2022-08-04T01:28:35;99111.72;;;20.04;71.34
66627;BME280;53498;50.422;14.912;2022-08-04T01:33:59;99111.72;;;20.04;70.73
66627;BME280;53498;50.422;14.912;2022-08-04T01:36:26;99119.53;;;20.07;70.46
66627;BME280;53498;50.422;14.912;2022-08-04T01:38:57;99117.13;;;20.01;71.33
66627;BME280;53498;50.422;14.912;2022-08-04T01:41:45;99121.53;;;20.00;71.42
66627;BME280;53498;50.422;14.912;2022-08-04T01:44:12;99122.31;;;20.02;71.83
66627;BME280;53498;50.422;14.912;2022-08-04T01:46:39;99117.94;;;20.03;71.81
66627;BME280;53498;50.422;14.912;2022-08-04T01:49:06;99124.06;;;20.03;71.20
66627;BME280;53498;50.422;14.912;2022-08-04T01:51:34;99113.84;;;19.94;72.13
66627;BME280;53498;50.422;14.912;2022-08-04T01:54:04;99118.16;;;19.97;71.84
66627;BME280;53498;50.422;14.912;2022-08-04T01:56:30;99115.63;;;19.94;71.54
66627;BME280;53498;50.422;14.912;2022-08-04T01:58:58;99112.06;;;19.95;72.58
66627;BME280;53498;50.422;14.912;2022-08-04T02:01:27;99116.09;;;19.81;71.83
66627;BME280;53498;50.422;14.912;2022-08-04T02:03:52;99120.63;;;19.78;71.44
66627;BME280;53498;50.422;14.912;2022-08-04T02:06:42;99124.03;;;19.80;71.84
66627;BME280;53498;50.422;14.912;2022-08-04T02:11:48;99116.81;;;19.85;72.32
66627;BME280;53498;50.422;14.912;2022-08-04T02:14:27;99110.94;;;19.77;72.05
66627;BME280;53498;50.422;14.912;2022-08-04T02:17:25;99112.84;;;19.73;72.57
66627;BME280;53498;50.422;14.912;2022-08-04T02:20:11;99108.53;;;19.71;73.03
66627;BME280;53498;50.422;14.912;2022-08-04T02:23:06;99111.38;;;19.66;73.12
66627;BME280;53498;50.422;14.912;2022-08-04T02:25:38;99105.97;;;19.69;72.72
66627;BME280;53498;50.422;14.912;2022-08-04T02:28:15;99110.59;;;19.62;73.59
66627;BME280;53498;50.422;14.912;2022-08-04T02:30:57;99113.06;;;19.67;73.15
66627;BME280;53498;50.422;14.912;2022-08-04T02:33:51;99110.59;;;19.62;72.55
66627;BME280;53498;50.422;14.912;2022-08-04T02:36:27;99110.59;;;19.62;72.02
66627;BME280;53498;50.422;14.912;2022-08-04T02:38:58;99104.56;;;19.59;72.50
66627;BME280;53498;50.422;14.912;2022-08-04T02:41:26;99109.06;;;19.55;73.12
66627;BME280;53498;50.422;14.912;2022-08-04T02:43:55;99104.13;;;19.46;73.33
66627;BME280;53498;50.422;14.912;2022-08-04T02:46:21;99103.22;;;19.47;73.06
66627;BME280;53498;50.422;14.912;2022-08-04T02:48:49;99102.34;;;19.47;72.66
66627;BME280;53498;50.422;14.912;2022-08-04T02:51:21;99102.41;;;19.45;72.66
66627;BME280;53498;50.422;14.912;2022-08-04T02:53:51;99099.72;;;19.47;73.31
66627;BME280;53498;50.422;14.912;2022-08-04T02:56:19;99101.66;;;19.41;73.09
66627;BME280;53498;50.422;14.912;2022-08-04T02:58:50;99100.78;;;19.41;74.14
66627;BME280;53498;50.422;14.912;2022-08-04T03:01:16;99102.50;;;19.42;73.63
66627;BME280;53498;50.422;14.912;2022-08-04T03:03:55;99103.69;;;19.33;72.78
66627;BME280;53498;50.422;14.912;2022-08-04T03:06:47;99095.94;;;19.29;73.63
66627;BME280;53498;50.422;14.912;2022-08-04T03:09:30;99097.00;;;19.23;73.26
66627;BME280;53498;50.422;14.912;2022-08-04T03:40:34;99120.81;;;19.22;74.92
66627;BME280;53498;50.422;14.912;2022-08-04T03:48:36;99117.97;;;19.01;74.70
66627;BME280;53498;50.422;14.912;2022-08-04T03:57:19;99112.50;;;19.07;74.48
66627;BME280;53498;50.422;14.912;2022-08-04T04:00:19;99115.78;;;19.14;75.07
66627;BME280;53498;50.422;14.912;2022-08-04T04:06:14;99117.69;;;19.10;74.20
66627;BME280;53498;50.422;14.912;2022-08-04T04:15:00;99117.34;;;19.19;73.32
66627;BME280;53498;50.422;14.912;2022-08-04T04:17:44;99117.47;;;19.16;73.23
66627;BME280;53498;50.422;14.912;2022-08-04T04:25:33;99110.75;;;19.33;73.55
66627;BME280;53498;50.422;14.912;2022-08-04T04:28:21;99113.97;;;19.41;72.60
66627;BME280;53498;50.422;14.912;2022-08-04T04:45:52;99115.44;;;19.75;70.30
66627;BME280;53498;50.422;14.912;2022-08-04T04:51:09;99121.66;;;19.97;71.51
66627;BME280;53498;50.422;14.912;2022-08-04T04:56:24;99123.41;;;20.20;70.44
66627;BME280;53498;50.422;14.912;2022-08-04T04:58:53;99122.25;;;20.27;70.84
66627;BME280;53498;50.422;14.912;2022-08-04T05:01:35;99134.81;;;20.44;68.84
66627;BME280;53498;50.422;14.912;2022-08-04T05:15:52;99131.22;;;21.54;62.02
66627;BME280;53498;50.422;14.912;2022-08-04T05:18:21;99129.91;;;21.64;60.41
66627;BME280;53498;50.422;14.912;2022-08-04T05:20:54;99128.81;;;21.68;61.62
66627;BME280;53498;50.422;14.912;2022-08-04T05:23:28;99124.91;;;21.77;61.13
66627;BME280;53498;50.422;14.912;2022-08-04T05:26:00;99128.09;;;21.85;59.96
66627;BME280;53498;50.422;14.912;2022-08-04T05:31:12;99129.16;;;22.00;56.96
66627;BME280;53498;50.422;14.912;2022-08-04T05:33:46;99125.81;;;22.15;56.54
66627;BME280;53498;50.422;14.912;2022-08-04T05:36:16;99128.84;;;22.26;56.97
66627;BME280;53498;50.422;14.912;2022-08-04T05:38:44;99122.91;;;22.21;55.97
66627;BME280;53498;50.422;14.912;2022-08-04T05:41:12;99130.28;;;22.33;56.58
66627;BME280;53498;50.422;14.912;2022-08-04T05:43:42;99127.47;;;22.36;54.30
66627;BME280;53498;50.422;14.912;2022-08-04T05:46:08;99123.16;;;22.53;55.45
66627;BME280;53498;50.422;14.912;2022-08-04T05:48:36;99125.06;;;22.51;53.05
66627;BME280;53498;50.422;14.912;2022-08-04T05:51:03;99126.06;;;22.48;53.28
66627;BME280;53498;50.422;14.912;2022-08-04T05:53:30;99132.28;;;22.66;53.50
66627;BME280;53498;50.422;14.912;2022-08-04T05:55:57;99130.59;;;22.82;52.72
66627;BME280;53498;50.422;14.912;2022-08-04T05:58:24;99123.31;;;23.22;52.34
66627;BME280;53498;50.422;14.912;2022-08-04T06:00:50;99121.41;;;23.59;51.45
66627;BME280;53498;50.422;14.912;2022-08-04T06:03:18;99126.31;;;23.84;51.96
66627;BME280;53498;50.422;14.912;2022-08-04T06:05:48;99123.91;;;23.80;50.56
66627;BME280;53498;50.422;14.912;2022-08-04T06:08:14;99124.03;;;24.10;51.20
66627;BME280;53498;50.422;14.912;2022-08-04T06:10:41;99124.09;;;24.57;49.03
66627;BME280;53498;50.422;14.912;2022-08-04T06:13:13;99123.56;;;24.82;48.45
66627;BME280;53498;50.422;14.912;2022-08-04T06:15:42;99122.56;;;25.45;48.78
66627;BME280;53498;50.422;14.912;2022-08-04T06:18:11;99125.06;;;27.30;42.60
66627;BME280;53498;50.422;14.912;2022-08-04T06:20:40;99118.88;;;29.27;38.82
66627;BME280;53498;50.422;14.912;2022-08-04T06:23:09;99122.47;;;28.67;38.50
66627;BME280;53498;50.422;14.912;2022-08-04T06:25:43;99117.97;;;28.44;39.28
66627;BME280;53498;50.422;14.912;2022-08-04T06:28:12;99117.50;;;27.75;41.35
66627;BME280;53498;50.422;14.912;2022-08-04T06:30:39;99125.72;;;26.79;42.47
66627;BME280;53498;50.422;14.912;2022-08-04T06:33:07;99121.69;;;26.86;42.78
66627;BME280;53498;50.422;14.912;2022-08-04T06:35:50;99124.59;;;26.27;44.06
66627;BME280;53498;50.422;14.912;2022-08-04T06:38:22;99124.00;;;26.37;42.67
66627;BME280;53498;50.422;14.912;2022-08-04T06:40:48;99130.84;;;26.82;42.48
66627;BME280;53498;50.422;14.912;2022-08-04T06:43:15;99121.22;;;27.07;42.46
66627;BME280;53498;50.422;14.912;2022-08-04T06:45:42;99123.69;;;27.10;40.60
66627;BME280;53498;50.422;14.912;2022-08-04T06:48:11;99124.22;;;26.75;40.78
66627;BME280;53498;50.422;14.912;2022-08-04T06:50:38;99126.00;;;26.33;41.26
66627;BME280;53498;50.422;14.912;2022-08-04T06:53:04;99127.84;;;26.74;41.36
66627;BME280;53498;50.422;14.912;2022-08-04T06:55:30;99128.50;;;26.22;41.93
66627;BME280;53498;50.422;14.912;2022-08-04T06:57:58;99126.13;;;26.73;41.67
66627;BME280;53498;50.422;14.912;2022-08-04T07:00:25;99124.50;;;26.97;41.69
66627;BME280;53498;50.422;14.912;2022-08-04T07:02:52;99124.56;;;26.83;40.99
66627;BME280;53498;50.422;14.912;2022-08-04T07:05:19;99117.00;;;27.17;41.14
66627;BME280;53498;50.422;14.912;2022-08-04T07:07:45;99107.09;;;27.44;40.10
66627;BME280;53498;50.422;14.912;2022-08-04T07:10:11;99104.34;;;27.46;40.43
66627;BME280;53498;50.422;14.912;2022-08-04T07:12:39;99108.72;;;27.60;40.22
66627;BME280;53498;50.422;14.912;2022-08-04T07:15:06;99116.25;;;27.15;40.70
66627;BME280;53498;50.422;14.912;2022-08-04T07:17:36;99120.03;;;26.71;41.49
66627;BME280;53498;50.422;14.912;2022-08-04T07:20:05;99116.00;;;27.05;40.93
66627;BME280;53498;50.422;14.912;2022-08-04T07:22:31;99114.84;;;26.82;41.06
66627;BME280;53498;50.422;14.912;2022-08-04T07:24:58;99120.75;;;27.14;41.56
66627;BME280;53498;50.422;14.912;2022-08-04T07:27:25;99113.50;;;27.42;41.48
66627;BME280;53498;50.422;14.912;2022-08-04T07:29:53;99116.72;;;27.60;40.66
66627;BME280;53498;50.422;14.912;2022-08-04T07:32:21;99106.69;;;28.02;39.58
66627;BME280;53498;50.422;14.912;2022-08-04T07:34:48;99105.81;;;27.50;40.34
66627;BME280;53498;50.422;14.912;2022-08-04T07:37:14;99106.78;;;27.49;39.10
66627;BME280;53498;50.422;14.912;2022-08-04T07:39:43;99105.31;;;27.58;40.31
66627;BME280;53498;50.422;14.912;2022-08-04T07:42:10;99104.00;;;27.63;39.88
66627;BME280;53498;50.422;14.912;2022-08-04T07:44:36;99108.09;;;27.82;40.05
66627;BME280;53498;50.422;14.912;2022-08-04T07:47:04;99107.16;;;27.83;40.38
66627;BME280;53498;50.422;14.912;2022-08-04T07:49:30;99106.19;;;28.33;39.59
66627;BME280;53498;50.422;14.912;2022-08-04T07:51:56;99110.00;;;28.55;38.16
66627;BME280;53498;50.422;14.912;2022-08-04T07:54:22;99104.38;;;28.47;37.41
66627;BME280;53498;50.422;14.912;2022-08-04T07:56:49;99099.66;;;28.74;37.47
66627;BME280;53498;50.422;14.912;2022-08-04T07:59:17;99101.81;;;28.69;37.73
66627;BME280;53498;50.422;14.912;2022-08-04T08:01:44;99104.91;;;28.52;37.33
66627;BME280;53498;50.422;14.912;2022-08-04T08:04:11;99106.06;;;28.48;37.44
66627;BME280;53498;50.422;14.912;2022-08-04T08:06:38;99094.69;;;28.57;38.65
66627;BME280;53498;50.422;14.912;2022-08-04T08:09:11;99098.84;;;28.61;37.38
66627;BME280;53498;50.422;14.912;2022-08-04T08:11:38;99099.88;;;28.71;36.79
66627;BME280;53498;50.422;14.912;2022-08-04T08:14:05;99091.88;;;28.82;36.99
66627;BME280;53498;50.422;14.912;2022-08-04T08:16:34;99099.72;;;28.62;36.83
66627;BME280;53498;50.422;14.912;2022-08-04T08:19:01;99093.03;;;28.67;36.89
66627;BME280;53498;50.422;14.912;2022-08-04T08:21:26;99093.75;;;28.45;36.97
66627;BME280;53498;50.422;14.912;2022-08-04T08:23:52;99092.53;;;28.62;37.73
66627;BME280;53498;50.422;14.912;2022-08-04T08:26:18;99085.22;;;28.88;37.15
66627;BME280;53498;50.422;14.912;2022-08-04T08:28:44;99085.78;;;29.04;36.13
66627;BME280;53498;50.422;14.912;2022-08-04T08:31:11;99072.81;;;28.87;36.55
66627;BME280;53498;50.422;14.912;2022-08-04T08:33:37;99075.56;;;29.34;35.93
66627;BME280;53498;50.422;14.912;2022-08-04T08:36:16;99069.81;;;29.38;35.59
66627;BME280;53498;50.422;14.912;2022-08-04T08:39:20;99078.47;;;29.31;34.49
66627;BME280;53498;50.422;14.912;2022-08-04T08:50:49;99075.78;;;29.31;34.67
66627;BME280;53498;50.422;14.912;2022-08-04T08:56:33;99075.13;;;29.62;34.78
66627;BME280;53498;50.422;14.912;2022-08-04T09:12:21;99075.94;;;30.41;31.55
66627;BME280;53498;50.422;14.912;2022-08-04T09:20:30;99069.00;;;30.39;32.74
66627;BME280;53498;50.422;14.912;2022-08-04T09:26:22;99065.38;;;30.61;31.60
66627;BME280;53498;50.422;14.912;2022-08-04T09:29:18;99069.41;;;30.78;30.15
66627;BME280;53498;50.422;14.912;2022-08-04T09:31:55;99063.28;;;30.64;31.04
66627;BME280;53498;50.422;14.912;2022-08-04T09:37:14;99058.50;;;30.36;31.94
66627;BME280;53498;50.422;14.912;2022-08-04T09:39:48;99054.97;;;30.47;31.72
66627;BME280;53498;50.422;14.912;2022-08-04T09:45:35;99053.50;;;30.75;30.98
66627;BME280;53498;50.422;14.912;2022-08-04T09:50:42;99050.53;;;30.89;30.21
66627;BME280;53498;50.422;14.912;2022-08-04T10:01:40;99036.25;;;31.30;30.15
66627;BME280;53498;50.422;14.912;2022-08-04T10:04:09;99033.75;;;31.18;29.69
66627;BME280;53498;50.422;14.912;2022-08-04T10:09:42;99037.25;;;31.29;30.81
66627;BME280;53498;50.422;14.912;2022-08-04T10:12:28;99029.16;;;31.41;29.65
66627;BME280;53498;50.422;14.912;2022-08-04T10:15:35;99026.63;;;31.28;29.96
66627;BME280;53498;50.422;14.912;2022-08-04T10:20:50;99020.66;;;31.24;30.50
66627;BME280;53498;50.422;14.912;2022-08-04T10:23:22;99019.91;;;31.13;29.32
66627;BME280;53498;50.422;14.912;2022-08-04T10:26:19;99014.06;;;31.07;29.29
66627;BME280;53498;50.422;14.912;2022-08-04T10:29:10;99017.09;;;31.35;29.33
66627;BME280;53498;50.422;14.912;2022-08-04T10:34:25;99028.38;;;31.18;28.81
66627;BME280;53498;50.422;14.912;2022-08-04T10:39:55;99010.84;;;31.14;28.53
66627;BME280;53498;50.422;14.912;2022-08-04T10:42:56;99014.31;;;31.25;28.73
66627;BME280;53498;50.422;14.912;2022-08-04T10:45:28;99007.09;;;31.26;28.68
66627;BME280;53498;50.422;14.912;2022-08-04T10:48:10;99006.06;;;31.38;28.85
66627;BME280;53498;50.422;14.912;2022-08-04T10:50:43;99013.97;;;31.70;28.96
66627;BME280;53498;50.422;14.912;2022-08-04T10:53:18;99004.31;;;31.58;28.93
66627;BME280;53498;50.422;14.912;2022-08-04T10:55:52;99010.50;;;31.49;28.98
66627;BME280;53498;50.422;14.912;2022-08-04T10:58:25;99005.06;;;31.70;27.68
66627;BME280;53498;50.422;14.912;2022-08-04T11:00:57;99006.41;;;31.54;27.64
66627;BME280;53498;50.422;14.912;2022-08-04T11:03:34;98993.13;;;31.32;28.48
66627;BME280;53498;50.422;14.912;2022-08-04T11:06:03;98997.97;;;30.96;28.39
66627;BME280;53498;50.422;14.912;2022-08-04T11:08:44;98997.09;;;31.07;29.03
66627;BME280;53498;50.422;14.912;2022-08-04T11:14:06;98989.72;;;31.30;28.53
66627;BME280;53498;50.422;14.912;2022-08-04T11:16:42;98989.81;;;31.49;28.66
66627;BME280;53498;50.422;14.912;2022-08-04T11:19:29;98993.28;;;31.61;28.49
66627;BME280;53498;50.422;14.912;2022-08-04T11:22:09;98991.81;;;31.47;28.58
66627;BME280;53498;50.422;14.912;2022-08-04T11:30:16;98991.09;;;31.45;27.88
66627;BME280;53498;50.422;14.912;2022-08-04T11:35:12;98989.81;;;31.49;28.60
66627;BME280;53498;50.422;14.912;2022-08-04T11:37:57;98993.06;;;31.43;28.61
66627;BME280;53498;50.422;14.912;2022-08-04T11:40:35;98991.66;;;31.49;28.92
66627;BME280;53498;50.422;14.912;2022-08-04T11:43:07;98996.94;;;31.50;28.99
66627;BME280;53498;50.422;14.912;2022-08-04T11:45:37;98993.00;;;31.33;28.77
66627;BME280;53498;50.422;14.912;2022-08-04T11:48:10;98986.34;;;30.86;28.80
66627;BME280;53498;50.422;14.912;2022-08-04T11:50:42;98990.28;;;31.03;28.43
66627;BME280;53498;50.422;14.912;2022-08-04T11:53:15;98984.28;;;30.99;29.45
66627;BME280;53498;50.422;14.912;2022-08-04T11:55:45;98985.13;;;31.21;29.81
66627;BME280;53498;50.422;14.912;2022-08-04T11:58:14;98984.19;;;31.52;28.12
66627;BME280;53498;50.422;14.912;2022-08-04T12:00:46;98976.22;;;31.82;28.88
66627;BME280;53498;50.422;14.912;2022-08-04T12:03:45;98980.69;;;32.02;27.66
66627;BME280;53498;50.422;14.912;2022-08-04T12:06:24;98989.13;;;31.78;27.79
66627;BME280;53498;50.422;14.912;2022-08-04T12:09:06;98975.31;;;31.62;28.12
66627;BME280;53498;50.422;14.912;2022-08-04T12:11:51;98973.81;;;31.38;28.00
66627;BME280;53498;50.422;14.912;2022-08-04T12:17:25;98977.84;;;31.53;27.96
66627;BME280;53498;50.422;14.912;2022-08-04T12:19:57;98972.06;;;31.68;27.68
66627;BME280;53498;50.422;14.912;2022-08-04T12:22:27;98969.84;;;31.73;27.18
66627;BME280;53498;50.422;14.912;2022-08-04T12:25:06;98969.38;;;31.68;27.72
66627;BME280;53498;50.422;14.912;2022-08-04T12:27:43;98972.88;;;31.58;28.38
66627;BME280;53498;50.422;14.912;2022-08-04T12:30:11;98965.28;;;31.64;28.02
66627;BME280;53498;50.422;14.912;2022-08-04T12:32:40;98967.22;;;31.92;28.91
66627;BME280;53498;50.422;14.912;2022-08-04T12:35:22;98961.75;;;32.23;27.10
66627;BME280;53498;50.422;14.912;2022-08-04T12:38:04;98958.94;;;32.34;27.76
66627;BME280;53498;50.422;14.912;2022-08-04T12:40:41;98963.09;;;31.88;27.23
66627;BME280;53498;50.422;14.912;2022-08-04T12:43:16;98956.97;;;31.76;27.83
66627;BME280;53498;50.422;14.912;2022-08-04T12:45:51;98956.38;;;31.73;27.55
66627;BME280;53498;50.422;14.912;2022-08-04T12:48:19;98953.25;;;31.77;27.39
66627;BME280;53498;50.422;14.912;2022-08-04T12:50:51;98958.25;;;31.82;27.01
66627;BME280;53498;50.422;14.912;2022-08-04T12:53:18;98957.47;;;31.91;27.56
66627;BME280;53498;50.422;14.912;2022-08-04T12:55:47;98947.25;;;31.95;26.46
66627;BME280;53498;50.422;14.912;2022-08-04T12:58:17;98948.97;;;31.96;26.53
66627;BME280;53498;50.422;14.912;2022-08-04T13:00:52;98944.38;;;31.87;25.97
66627;BME280;53498;50.422;14.912;2022-08-04T13:03:28;98939.78;;;31.58;26.96
66627;BME280;53498;50.422;14.912;2022-08-04T13:05:55;98941.50;;;31.59;27.79
66627;BME280;53498;50.422;14.912;2022-08-04T13:08:21;98937.56;;;31.73;27.67
66627;BME280;53498;50.422;14.912;2022-08-04T13:10:51;98933.19;;;31.72;27.15
66627;BME280;53498;50.422;14.912;2022-08-04T13:13:19;98917.44;;;31.77;27.73
66627;BME280;53498;50.422;14.912;2022-08-04T13:16:01;98918.81;;;32.02;27.64
66627;BME280;53498;50.422;14.912;2022-08-04T13:18:29;98917.56;;;32.25;26.07
66627;BME280;53498;50.422;14.912;2022-08-04T13:21:08;98913.69;;;32.09;23.56
66627;BME280;53498;50.422;14.912;2022-08-04T13:23:36;98916.41;;;32.18;24.91
66627;BME280;53498;50.422;14.912;2022-08-04T13:26:03;98904.78;;;32.08;25.81
66627;BME280;53498;50.422;14.912;2022-08-04T13:28:31;98910.88;;;32.20;25.85
66627;BME280;53498;50.422;14.912;2022-08-04T13:31:01;98913.56;;;32.10;24.55
66627;BME280;53498;50.422;14.912;2022-08-04T13:33:38;98912.88;;;32.18;24.29
66627;BME280;53498;50.422;14.912;2022-08-04T13:36:06;98909.19;;;32.19;25.27
66627;BME280;53498;50.422;14.912;2022-08-04T13:38:33;98909.03;;;32.20;24.12
66627;BME280;53498;50.422;14.912;2022-08-04T13:41:02;98908.47;;;32.17;23.32
66627;BME280;53498;50.422;14.912;2022-08-04T13:43:45;98907.34;;;32.00;23.12
66627;BME280;53498;50.422;14.912;2022-08-04T13:46:48;98898.97;;;31.93;23.94
66627;BME280;53498;50.422;14.912;2022-08-04T13:49:16;98901.41;;;32.16;24.86
66627;BME280;53498;50.422;14.912;2022-08-04T13:51:53;98897.44;;;32.00;25.69
66627;BME280;53498;50.422;14.912;2022-08-04T13:54:20;98892.28;;;31.88;25.93
66627;BME280;53498;50.422;14.912;2022-08-04T13:56:52;98906.47;;;31.90;25.58
66627;BME280;53498;50.422;14.912;2022-08-04T13:59:19;98889.59;;;31.78;24.60
66627;BME280;53498;50.422;14.912;2022-08-04T14:01:58;98886.19;;;31.76;24.57
66627;BME280;53498;50.422;14.912;2022-08-04T14:04:26;98895.81;;;31.88;24.56
66627;BME280;53498;50.422;14.912;2022-08-04T14:07:05;98890.59;;;31.96;25.51
66627;BME280;53498;50.422;14.912;2022-08-04T14:09:37;98890.03;;;32.02;24.58
66627;BME280;53498;50.422;14.912;2022-08-04T14:12:10;98882.53;;;31.96;24.75
66627;BME280;53498;50.422;14.912;2022-08-04T14:14:48;98869.41;;;32.13;25.71
66627;BME280;53498;50.422;14.912;2022-08-04T14:17:16;98874.75;;;31.93;25.02
66627;BME280;53498;50.422;14.912;2022-08-04T14:25:06;98861.59;;;32.10;25.57
66627;BME280;53498;50.422;14.912;2022-08-04T14:27:52;98869.13;;;32.16;25.66
66627;BME280;53498;50.422;14.912;2022-08-04T14:30:35;98863.72;;;32.16;25.85
66627;BME280;53498;50.422;14.912;2022-08-04T14:33:09;98866.56;;;32.05;25.61
66627;BME280;53498;50.422;14.912;2022-08-04T14:35:36;98858.88;;;31.90;25.92
66627;BME280;53498;50.422;14.912;2022-08-04T14:38:10;98857.44;;;31.86;26.50
66627;BME280;53498;50.422;14.912;2022-08-04T14:40:38;98866.06;;;31.80;26.33
66627;BME280;53498;50.422;14.912;2022-08-04T14:43:05;98856.16;;;31.71;26.23
66627;BME280;53498;50.422;14.912;2022-08-04T14:45:39;98858.28;;;31.77;26.98
66627;BME280;53498;50.422;14.912;2022-08-04T14:48:12;98861.00;;;31.96;27.31
66627;BME280;53498;50.422;14.912;2022-08-04T14:50:43;98851.13;;;31.97;26.74
66627;BME280;53498;50.422;14.912;2022-08-04T14:53:21;98859.03;;;31.89;26.50
66627;BME280;53498;50.422;14.912;2022-08-04T14:55:55;98848.34;;;31.58;26.25
66627;BME280;53498;50.422;14.912;2022-08-04T14:58:31;98845.38;;;31.71;27.63
66627;BME280;53498;50.422;14.912;2022-08-04T15:00:59;98842.41;;;31.74;27.78
66627;BME280;53498;50.422;14.912;2022-08-04T15:03:26;98844.16;;;31.75;27.58
66627;BME280;53498;50.422;14.912;2022-08-04T15:05:54;98841.31;;;31.86;28.37
66627;BME280;53498;50.422;14.912;2022-08-04T15:08:21;98836.97;;;31.95;27.39
66627;BME280;53498;50.422;14.912;2022-08-04T15:10:47;98835.38;;;31.92;27.62
66627;BME280;53498;50.422;14.912;2022-08-04T15:13:12;98838.47;;;31.78;26.76
66627;BME280;53498;50.422;14.912;2022-08-04T15:15:40;98842.03;;;31.78;26.72
66627;BME280;53498;50.422;14.912;2022-08-04T15:18:10;98844.41;;;31.72;27.19
66627;BME280;53498;50.422;14.912;2022-08-04T15:20:37;98838.59;;;31.76;27.43
66627;BME280;53498;50.422;14.912;2022-08-04T15:23:04;98840.63;;;31.84;27.87
66627;BME280;53498;50.422;14.912;2022-08-04T15:25:35;98835.06;;;31.76;27.35
66627;BME280;53498;50.422;14.912;2022-08-04T15:28:02;98835.63;;;31.70;28.16
66627;BME280;53498;50.422;14.912;2022-08-04T15:30:29;98829.97;;;31.73;27.74
66627;BME280;53498;50.422;14.912;2022-08-04T15:32:59;98827.13;;;31.65;26.96
66627;BME280;53498;50.422;14.912;2022-08-04T15:35:27;98831.66;;;31.64;28.00
66627;BME280;53498;50.422;14.912;2022-08-04T15:40:51;98822.59;;;31.65;28.37
66627;BME280;53498;50.422;14.912;2022-08-04T15:43:44;98819.03;;;31.55;27.96
66627;BME280;53498;50.422;14.912;2022-08-04T15:46:11;98810.97;;;31.45;28.57
66627;BME280;53498;50.422;14.912;2022-08-04T15:48:38;98808.84;;;31.58;28.08
66627;BME280;53498;50.422;14.912;2022-08-04T15:51:07;98813.28;;;31.60;27.84
66627;BME280;53498;50.422;14.912;2022-08-04T15:58:51;98807.00;;;31.49;28.16
66627;BME280;53498;50.422;14.912;2022-08-04T16:01:18;98812.38;;;31.49;28.00
66627;BME280;53498;50.422;14.912;2022-08-04T16:03:46;98816.06;;;31.58;28.44
66627;BME280;53498;50.422;14.912;2022-08-04T16:08:58;98810.84;;;31.47;28.01
66627;BME280;53498;50.422;14.912;2022-08-04T16:21:50;98796.91;;;31.32;28.75
66627;BME280;53498;50.422;14.912;2022-08-04T16:24:29;98784.59;;;31.29;28.79
66627;BME280;53498;50.422;14.912;2022-08-04T16:26:56;98794.06;;;31.24;28.86
66627;BME280;53498;50.422;14.912;2022-08-04T16:37:08;98792.38;;;31.32;28.38
66627;BME280;53498;50.422;14.912;2022-08-04T16:39:34;98790.41;;;31.25;28.76
66627;BME280;53498;50.422;14.912;2022-08-04T16:50:19;98792.50;;;31.21;28.86
66627;BME280;53498;50.422;14.912;2022-08-04T16:55:14;98792.75;;;31.18;28.97
66627;BME280;53498;50.422;14.912;2022-08-04T16:57:40;98790.50;;;31.14;28.74
66627;BME280;53498;50.422;14.912;2022-08-04T17:00:06;98795.69;;;31.05;28.87
66627;BME280;53498;50.422;14.912;2022-08-04T17:02:33;98793.56;;;30.99;29.87
66627;BME280;53498;50.422;14.912;2022-08-04T17:04:58;98790.44;;;30.94;29.11
66627;BME280;53498;50.422;14.912;2022-08-04T17:07:24;98791.56;;;30.92;29.28
66627;BME280;53498;50.422;14.912;2022-08-04T17:09:50;98792.94;;;30.86;29.40
66627;BME280;53498;50.422;14.912;2022-08-04T17:12:17;98788.13;;;30.80;29.82
66627;BME280;53498;50.422;14.912;2022-08-04T17:14:42;98785.50;;;30.69;29.91
66627;BME280;53498;50.422;14.912;2022-08-04T17:17:08;98789.97;;;30.58;29.60
66627;BME280;53498;50.422;14.912;2022-08-04T17:19:35;98785.22;;;30.41;31.90
66627;BME280;53498;50.422;14.912;2022-08-04T17:22:04;98784.22;;;30.42;30.61